Time;durP1;ratioP1;P1;durP2;ratioP2;P2;SDS_P1;SDS_P2;PMS_P1;PMS_P2;Temp;Humidity;BMP_temperature;BMP_pressure;BME280_temperature;BME280_humidity;BME280_pressure;Samples;Min_cycle;Max_cycle;Signal;HPM_P1;HPM_P2
2023/11/19 00:00:35;;;;;;;0.93;0.90;;;9.00;99.90;;;9.55;100.00;97872.72;5019999;28;20502;-80
2023/11/19 00:03:05;;;;;;;1.10;0.90;;;9.10;99.90;;;9.58;100.00;97864.50;5019054;28;20489;-79
2023/11/19 00:05:34;;;;;;;1.57;1.13;;;9.10;99.90;;;9.60;100.00;97855.53;5021039;28;20463;-80
2023/11/19 00:08:03;;;;;;;2.03;1.00;;;9.10;99.90;;;9.60;100.00;97860.75;5018008;28;20470;-80
2023/11/19 00:10:31;;;;;;;0.80;0.80;;;9.00;99.90;;;9.61;100.00;97878.00;5018232;28;20474;-80
2023/11/19 00:13:00;;;;;;;1.00;0.93;;;9.10;99.90;;;9.64;100.00;97873.44;5017800;28;20493;-80
2023/11/19 00:15:28;;;;;;;1.07;0.97;;;9.10;99.90;;;9.63;100.00;97871.81;5020235;28;20552;-80
2023/11/19 00:17:57;;;;;;;1.03;0.93;;;9.10;99.90;;;9.64;100.00;97863.78;5017123;28;20846;-80
2023/11/19 00:20:32;;;;;;;4.90;1.00;;;9.10;99.90;;;9.63;100.00;97856.13;5018361;28;20546;-80
2023/11/19 00:23:02;;;;;;;1.20;0.90;;;9.20;99.90;;;9.59;100.00;97853.91;5017039;28;20461;-80
2023/11/19 00:25:31;;;;;;;0.70;0.70;;;9.10;99.90;;;9.63;100.00;97848.31;5018280;28;20466;-80
2023/11/19 00:27:59;;;;;;;2.60;0.80;;;9.10;99.90;;;9.64;100.00;97829.06;5018043;28;20466;-80
2023/11/19 00:30:28;;;;;;;0.97;0.90;;;9.10;99.90;;;9.64;100.00;97818.59;5018945;28;20470;-81
2023/11/19 00:32:56;;;;;;;1.20;1.10;;;9.10;99.90;;;9.63;100.00;97827.41;5020444;28;21046;-80
2023/11/19 00:35:25;;;;;;;0.80;0.80;;;9.20;99.90;;;9.65;100.00;97835.91;5018791;28;20471;-80
2023/11/19 00:37:55;;;;;;;0.90;0.70;;;9.10;99.90;;;9.65;100.00;97841.13;5020517;28;20536;-80
2023/11/19 00:40:23;;;;;;;2.73;1.00;;;9.10;99.90;;;9.66;100.00;97833.09;5018890;28;20501;-79
2023/11/19 00:42:52;;;;;;;0.80;0.80;;;9.00;99.90;;;9.65;100.00;97821.00;5018121;28;20462;-81
2023/11/19 00:45:20;;;;;;;2.50;1.10;;;9.10;99.90;;;9.64;100.00;97808.16;5019427;28;20531;-81
2023/11/19 00:47:49;;;;;;;3.60;0.83;;;9.20;99.90;;;9.63;100.00;97812.56;5018313;28;20461;-81
2023/11/19 00:50:17;;;;;;;1.43;1.10;;;9.20;99.90;;;9.66;100.00;97837.50;5021356;28;20477;-81
2023/11/19 00:52:47;;;;;;;1.93;0.77;;;9.10;99.90;;;9.68;100.00;97836.34;5018756;28;20461;-81
2023/11/19 00:55:17;;;;;;;1.20;0.90;;;9.10;99.90;;;9.67;100.00;97824.25;5020102;28;20476;-82
2023/11/19 00:57:48;;;;;;;3.97;1.00;;;9.10;99.90;;;9.69;100.00;97821.44;5019311;28;20459;-81
2023/11/19 01:00:19;;;;;;;1.43;0.90;;;9.10;99.90;;;9.68;100.00;97818.06;5020945;28;20498;-80
2023/11/19 01:02:49;;;;;;;1.17;0.90;;;9.10;99.90;;;9.68;100.00;97820.66;5019931;28;20560;-81
2023/11/19 01:05:22;;;;;;;0.80;0.80;;;9.10;99.90;;;9.66;100.00;97808.78;5018648;28;20468;-80
2023/11/19 01:07:53;;;;;;;1.00;0.90;;;9.10;99.90;;;9.68;100.00;97809.41;5017408;28;20473;-80
2023/11/19 01:10:25;;;;;;;0.90;0.90;;;9.10;99.90;;;9.67;100.00;97808.59;5017763;28;20470;-80
2023/11/19 01:12:54;;;;;;;3.63;0.90;;;9.10;99.90;;;9.66;100.00;97796.53;5018943;28;20550;-81
2023/11/19 01:15:23;;;;;;;1.60;0.90;;;9.10;99.90;;;9.67;100.00;97787.72;5016323;28;20991;-81
2023/11/19 01:17:52;;;;;;;1.87;0.80;;;9.10;99.90;;;9.68;100.00;97799.78;5017562;28;21238;-82
2023/11/19 01:20:21;;;;;;;1.57;1.03;;;9.10;99.90;;;9.70;100.00;97802.19;5017578;28;20600;-81
2023/11/19 01:22:49;;;;;;;4.20;1.20;;;9.10;99.90;;;9.71;100.00;97793.38;5017383;28;20459;-81
2023/11/19 01:25:18;;;;;;;3.00;0.80;;;9.10;99.90;;;9.71;100.00;97778.50;5018940;28;20469;-80
2023/11/19 01:27:49;;;;;;;1.57;1.00;;;9.10;99.90;;;9.73;100.00;97776.50;5017502;28;20546;-81
2023/11/19 01:30:19;;;;;;;1.10;1.00;;;9.10;99.90;;;9.73;100.00;97780.91;5019801;28;20474;-81
2023/11/19 01:32:48;;;;;;;0.90;0.80;;;9.20;99.90;;;9.74;100.00;97791.19;5017894;28;20542;-81
2023/11/19 01:35:17;;;;;;;0.93;0.87;;;9.20;99.90;;;9.76;100.00;97791.00;5018014;28;20865;-81
2023/11/19 01:37:45;;;;;;;1.00;0.80;;;9.20;99.90;;;9.77;100.00;97793.41;5017292;28;21037;-81
2023/11/19 01:40:15;;;;;;;1.57;0.80;;;9.20;99.90;;;9.76;100.00;97785.75;5015949;28;20490;-81
2023/11/19 01:42:43;;;;;;;0.77;0.77;;;9.20;99.90;;;9.77;100.00;97769.91;5017450;28;21137;-81
2023/11/19 01:45:29;;;;;;;0.90;0.80;;;9.20;99.90;;;9.78;100.00;97758.50;5014316;28;20466;-81
2023/11/19 01:47:58;;;;;;;3.10;0.90;;;9.20;99.90;;;9.81;100.00;97759.91;5018181;28;20501;-81
2023/11/19 01:50:29;;;;;;;0.70;0.70;;;9.30;99.90;;;9.83;100.00;97756.09;5017858;28;20559;-81
2023/11/19 01:52:59;;;;;;;1.10;0.93;;;9.20;99.90;;;9.84;100.00;97756.91;5015338;28;21123;-81
2023/11/19 01:55:29;;;;;;;0.80;0.70;;;9.20;99.90;;;9.84;100.00;97757.72;5018497;28;20469;-81
2023/11/19 01:58:02;;;;;;;0.70;0.70;;;9.30;99.90;;;9.83;100.00;97756.09;5019596;28;20464;-80
2023/11/19 02:00:34;;;;;;;3.03;0.90;;;9.30;99.90;;;9.82;100.00;97751.09;5018011;28;20544;-81
2023/11/19 02:03:04;;;;;;;5.80;0.97;;;9.30;99.90;;;9.86;100.00;97755.72;5018253;28;20466;-81
2023/11/19 02:05:34;;;;;;;1.10;1.00;;;9.30;99.90;;;9.87;100.00;97751.31;5016271;28;20540;-81
2023/11/19 02:08:03;;;;;;;6.20;0.90;;;9.30;99.90;;;9.88;100.00;97761.59;5015723;28;20478;-81
2023/11/19 02:10:31;;;;;;;1.33;1.03;;;9.40;99.90;;;9.90;100.00;97759.56;5013916;28;20469;-81
2023/11/19 02:13:02;;;;;;;3.47;0.90;;;9.30;99.90;;;9.90;100.00;97763.97;5015665;28;21075;-80
2023/11/19 02:15:35;;;;;;;1.60;1.50;;;9.50;99.90;;;9.95;100.00;97751.19;5015757;28;20496;-80
2023/11/19 02:18:21;;;;;;;1.00;0.90;;;9.40;99.90;;;9.95;100.00;97751.19;5014590;28;20571;-80
2023/11/19 02:20:51;;;;;;;0.97;0.90;;;9.50;99.90;;;9.94;100.00;97742.53;5015370;28;20500;-80
2023/11/19 02:23:21;;;;;;;1.23;1.00;;;9.50;99.90;;;9.95;100.00;97732.91;5015237;28;20545;-81
2023/11/19 02:26:09;;;;;;;0.93;0.90;;;9.50;99.90;;;9.98;100.00;97732.50;5017441;28;20945;-80
2023/11/19 02:28:40;;;;;;;1.00;0.90;;;9.50;99.90;;;10.00;100.00;97728.69;5014845;28;20475;-83
2023/11/19 02:31:09;;;;;;;0.70;0.70;;;9.50;99.90;;;10.02;100.00;97723.31;5017478;28;20450;-80
2023/11/19 02:33:39;;;;;;;1.23;1.13;;;9.50;99.90;;;10.01;100.00;97716.44;5017115;28;20502;-81
2023/11/19 02:36:09;;;;;;;1.10;0.90;;;9.50;99.90;;;10.01;100.00;97713.84;5016717;28;20470;-81
2023/11/19 02:38:38;;;;;;;4.60;1.00;;;9.50;99.90;;;10.02;100.00;97715.47;5017540;28;21059;-81
2023/11/19 02:41:09;;;;;;;1.00;0.90;;;9.50;99.90;;;10.03;100.00;97709.25;5016899;28;20494;-81
2023/11/19 02:43:39;;;;;;;1.20;0.80;;;9.50;99.90;;;10.04;100.00;97718.69;5016688;28;20501;-80
2023/11/19 02:46:08;;;;;;;0.90;0.80;;;9.50;99.90;;;10.05;100.00;97717.69;5016580;28;20462;-81
2023/11/19 02:48:40;;;;;;;1.00;0.90;;;9.50;99.90;;;10.04;100.00;97719.50;5016814;28;20520;-81
2023/11/19 02:51:09;;;;;;;2.13;1.10;;;9.50;99.90;;;10.06;100.00;97714.91;5015526;28;21214;-81
2023/11/19 02:53:40;;;;;;;1.30;1.20;;;9.50;99.90;;;10.07;100.00;97715.69;5015105;28;20467;-81
2023/11/19 02:56:19;;;;;;;0.80;0.80;;;9.40;99.90;;;10.06;100.00;97712.28;5016112;28;20540;-81
2023/11/19 02:58:49;;;;;;;1.00;0.90;;;9.50;99.90;;;10.09;100.00;97704.06;5016018;28;20540;-80
2023/11/19 03:01:29;;;;;;;0.80;0.80;;;9.50;99.90;;;10.08;100.00;97699.81;5014460;28;20502;-80
2023/11/19 03:04:01;;;;;;;2.40;0.80;;;9.60;99.90;;;10.12;100.00;97700.25;5014728;28;20492;-81
2023/11/19 03:06:30;;;;;;;1.00;0.80;;;9.60;99.90;;;10.14;100.00;97703.50;5014870;28;20474;-81
2023/11/19 03:09:01;;;;;;;0.90;0.70;;;9.70;99.90;;;10.17;100.00;97697.09;5016114;28;20941;-81
2023/11/19 03:11:29;;;;;;;0.80;0.80;;;9.60;99.90;;;10.20;100.00;97694.09;5018722;28;20466;-80
2023/11/19 03:13:59;;;;;;;0.80;0.80;;;9.60;99.90;;;10.17;100.00;97679.59;5015170;28;20467;-81
2023/11/19 03:16:28;;;;;;;0.80;0.70;;;9.70;99.90;;;10.19;100.00;97690.66;5013392;28;20478;-81
2023/11/19 03:18:57;;;;;;;2.30;0.70;;;9.70;99.90;;;10.20;100.00;97684.47;5014054;28;20964;-80
2023/11/19 03:21:29;;;;;;;0.70;0.60;;;9.80;99.90;;;10.24;100.00;97679.66;5015279;28;20489;-81
2023/11/19 03:23:59;;;;;;;0.70;0.70;;;9.80;99.90;;;10.27;100.00;97679.25;5015252;28;20958;-80
2023/11/19 03:26:28;;;;;;;0.90;0.80;;;9.80;99.90;;;10.29;100.00;97678.06;5016971;28;20549;-81
2023/11/19 03:28:57;;;;;;;0.80;0.70;;;9.90;99.90;;;10.32;100.00;97679.47;5017453;28;20469;-81
2023/11/19 03:31:27;;;;;;;1.00;0.70;;;9.90;99.90;;;10.32;100.00;97680.28;5017197;28;20482;-81
2023/11/19 03:33:55;;;;;;;0.70;0.70;;;9.90;99.90;;;10.35;100.00;97685.13;5016581;28;20464;-81
2023/11/19 03:36:33;;;;;;;1.10;0.90;;;9.80;99.90;;;10.36;100.00;97684.13;5013660;28;20467;-81
2023/11/19 03:39:03;;;;;;;0.70;0.70;;;9.80;99.90;;;10.38;100.00;97673.47;5017875;28;20515;-81
2023/11/19 03:41:30;;;;;;;1.00;0.80;;;9.90;99.90;;;10.39;100.00;97672.47;5013674;28;20494;-81
2023/11/19 03:44:09;;;;;;;0.80;0.70;;;10.00;99.90;;;10.42;100.00;97672.88;5014332;28;20980;-80
2023/11/19 03:46:39;;;;;;;1.87;0.77;;;10.00;99.90;;;10.42;100.00;97678.09;5016201;28;20462;-80
2023/11/19 03:49:07;;;;;;;0.90;0.80;;;10.00;99.90;;;10.45;100.00;97680.34;5014280;28;20462;-80
2023/11/19 03:51:36;;;;;;;0.70;0.70;;;10.00;99.90;;;10.46;100.00;97668.06;5013914;28;20556;-81
2023/11/19 03:54:06;;;;;;;0.80;0.70;;;10.00;99.90;;;10.48;100.00;97677.31;5016528;28;20557;-81
2023/11/19 03:56:34;;;;;;;3.20;0.80;;;10.00;99.90;;;10.50;100.00;97677.94;5017153;28;20475;-81
2023/11/19 03:59:03;;;;;;;0.90;0.70;;;10.10;99.90;;;10.54;100.00;97681.78;5015390;28;20451;-80
2023/11/19 04:01:31;;;;;;;0.70;0.70;;;10.20;99.90;;;10.59;100.00;97678.56;5016589;28;20513;-80
2023/11/19 04:04:02;;;;;;;0.70;0.70;;;10.20;99.90;;;10.62;100.00;97666.94;5020098;28;20984;-80
2023/11/19 04:06:31;;;;;;;2.40;0.70;;;10.20;99.90;;;10.66;100.00;97668.13;5019323;28;20485;-80
2023/11/19 04:09:00;;;;;;;3.00;0.80;;;10.10;99.90;;;10.67;100.00;97665.34;5018610;28;20477;-80
2023/11/19 04:11:29;;;;;;;0.80;0.70;;;10.20;99.90;;;10.70;100.00;97662.31;5018125;28;20890;-81
2023/11/19 04:13:57;;;;;;;0.73;0.70;;;10.20;99.90;;;10.71;100.00;97661.31;5018354;28;20930;-80
2023/11/19 04:16:29;;;;;;;1.00;0.70;;;10.20;99.90;;;10.73;100.00;97658.50;5017679;28;20485;-80
2023/11/19 04:18:58;;;;;;;0.80;0.70;;;10.30;99.90;;;10.73;100.00;97659.31;5019461;28;20539;-81
2023/11/19 04:21:28;;;;;;;0.80;0.70;;;10.30;99.90;;;10.76;100.00;97664.13;5018729;28;20497;-80
2023/11/19 04:23:56;;;;;;;0.80;0.70;;;10.30;99.90;;;10.79;100.00;97657.72;5017655;28;20463;-80
2023/11/19 04:26:25;;;;;;;0.80;0.70;;;10.30;99.90;;;10.80;100.00;97660.13;5019548;28;20473;-81
2023/11/19 04:28:53;;;;;;;0.90;0.70;;;10.40;99.90;;;10.81;100.00;97653.09;5020032;28;20467;-81
2023/11/19 04:31:22;;;;;;;16.93;1.47;;;10.40;99.90;;;10.84;100.00;97652.69;5017544;28;20655;-80
2023/11/19 04:33:52;;;;;;;1.00;0.90;;;10.30;99.90;;;10.85;100.00;97647.28;5018618;28;20478;-80
2023/11/19 04:36:24;;;;;;;0.90;0.77;;;10.40;99.90;;;10.87;100.00;97649.69;5017977;28;20552;-80
2023/11/19 04:38:53;;;;;;;0.70;0.67;;;10.40;99.90;;;10.90;100.00;97647.47;5018045;28;20470;-80
2023/11/19 04:41:23;;;;;;;0.83;0.73;;;10.40;99.90;;;10.94;100.00;97642.66;5018493;28;20497;-80
2023/11/19 04:43:51;;;;;;;0.80;0.80;;;10.50;99.90;;;10.94;100.00;97635.63;5021416;28;20505;-80
2023/11/19 04:46:20;;;;;;;1.10;0.70;;;10.50;99.90;;;10.96;100.00;97643.28;5018233;28;20980;-80
2023/11/19 04:48:49;;;;;;;1.23;0.80;;;10.50;99.90;;;10.97;100.00;97642.25;5018623;28;20469;-80
2023/11/19 04:51:17;;;;;;;3.57;0.80;;;10.50;99.90;;;10.98;100.00;97641.25;5019926;28;20528;-81
2023/11/19 04:53:46;;;;;;;1.27;0.80;;;10.50;99.90;;;11.01;100.00;97640.84;5017471;28;20462;-81
2023/11/19 04:56:19;;;;;;;2.40;1.00;;;10.50;99.90;;;11.02;100.00;97637.25;5019308;28;20462;-80
2023/11/19 04:58:48;;;;;;;1.23;0.83;;;10.50;99.90;;;11.03;100.00;97641.47;5018927;28;20558;-80
2023/11/19 05:01:17;;;;;;;1.10;1.00;;;10.50;99.90;;;11.05;100.00;97634.22;5018630;28;20459;-81
2023/11/19 05:03:46;;;;;;;1.00;0.80;;;10.60;99.90;;;11.05;100.00;97634.22;5016783;28;20549;-80
2023/11/19 05:06:15;;;;;;;2.90;0.80;;;10.50;99.90;;;11.03;100.00;97628.38;5019066;28;20458;-80
2023/11/19 05:08:44;;;;;;;2.70;1.40;;;10.60;99.90;;;11.07;100.00;97634.84;5017488;28;20842;-80
2023/11/19 05:11:17;;;;;;;1.30;1.20;;;10.50;99.90;;;11.09;100.00;97627.59;5018814;28;20495;-80
2023/11/19 05:13:47;;;;;;;1.10;0.83;;;10.60;99.90;;;11.11;100.00;97626.38;5015722;28;20458;-80
2023/11/19 05:16:17;;;;;;;3.50;1.03;;;10.60;99.90;;;11.15;100.00;97621.53;5016409;28;20483;-81
2023/11/19 05:18:46;;;;;;;1.30;0.93;;;10.60;99.90;;;11.20;100.00;97636.66;5020255;28;20458;-80
2023/11/19 05:21:14;;;;;;;1.03;0.93;;;10.70;99.90;;;11.30;100.00;97635.25;5013445;28;20466;-79
2023/11/19 05:23:43;;;;;;;3.33;1.37;;;10.90;99.90;;;11.34;100.00;97636.47;5012122;28;20498;-80
2023/11/19 05:26:19;;;;;;;2.00;1.00;;;10.90;99.90;;;11.38;100.00;97642.91;5011935;28;20458;-80
2023/11/19 05:28:49;;;;;;;1.00;0.90;;;11.00;99.90;;;11.38;100.00;97648.16;5016362;28;20530;-80
2023/11/19 05:31:19;;;;;;;1.10;1.00;;;10.90;99.90;;;11.42;100.00;97643.31;5015866;28;21060;-80
2023/11/19 05:33:47;;;;;;;1.90;1.60;;;11.00;99.90;;;11.51;100.00;97653.38;5014134;28;20543;-78
2023/11/19 05:36:16;;;;;;;1.07;0.80;;;11.10;99.90;;;11.52;100.00;97644.47;5016340;28;20467;-80
2023/11/19 05:38:45;;;;;;;1.57;1.00;;;11.10;99.90;;;11.55;100.00;97643.28;5015238;28;20463;-80
2023/11/19 05:41:14;;;;;;;0.90;0.83;;;11.20;99.90;;;11.60;100.00;97640.84;5015814;28;20474;-77
2023/11/19 05:43:43;;;;;;;1.13;1.00;;;11.20;99.90;;;11.64;100.00;97644.69;5016105;28;20915;-78
2023/11/19 05:46:13;;;;;;;0.90;0.80;;;11.30;99.90;;;11.63;100.00;97641.25;5017410;28;20467;-78
2023/11/19 05:48:46;;;;;;;1.37;0.80;;;11.20;99.90;;;11.66;100.00;97647.09;5016762;28;20870;-77
2023/11/19 05:51:16;;;;;;;3.57;1.23;;;11.30;99.90;;;11.68;100.00;97655.56;5017292;28;20598;-77
2023/11/19 05:53:45;;;;;;;0.80;0.80;;;11.30;99.90;;;11.67;100.00;97662.59;5014677;28;20461;-77
2023/11/19 05:56:15;;;;;;;1.33;0.90;;;11.30;99.90;;;11.71;100.00;97658.59;5016223;28;20881;-77
2023/11/19 05:58:44;;;;;;;2.60;0.93;;;11.20;99.90;;;11.69;100.00;97670.28;5014479;28;20470;-78
2023/11/19 06:01:15;;;;;;;1.00;0.90;;;11.30;99.90;;;11.69;100.00;97675.50;5016865;28;20544;-77
2023/11/19 06:03:47;;;;;;;1.00;0.80;;;11.20;99.90;;;11.70;100.00;97666.66;5015817;28;20505;-77
2023/11/19 06:06:16;;;;;;;2.17;1.10;;;11.20;99.90;;;11.66;100.00;97660.22;5015549;28;20891;-77
2023/11/19 06:08:44;;;;;;;185.03;96.17;;;11.20;99.90;;;11.65;100.00;97664.63;5012660;28;21030;-78
2023/11/19 06:11:17;;;;;;;13.23;2.73;;;11.20;99.90;;;11.63;100.00;97662.22;5012709;28;20473;-78
2023/11/19 06:13:47;;;;;;;5.87;1.20;;;11.30;99.90;;;11.63;100.00;97666.63;5019375;28;20466;-78
2023/11/19 06:16:16;;;;;;;3.80;1.30;;;11.30;99.90;;;11.66;100.00;97662.81;5016975;28;20577;-77
2023/11/19 06:18:45;;;;;;;4.20;1.40;;;11.30;99.90;;;11.65;100.00;97669.06;5016844;28;20823;-77
2023/11/19 06:21:14;;;;;;;1.57;0.90;;;11.20;99.90;;;11.62;100.00;97670.28;5017230;28;20519;-76
2023/11/19 06:23:43;;;;;;;2.80;1.37;;;11.20;99.90;;;11.61;100.00;97664.22;5016989;28;20497;-77
2023/11/19 06:26:11;;;;;;;9.73;1.40;;;11.20;99.90;;;11.60;100.00;97672.28;5016427;28;20463;-77
2023/11/19 06:28:40;;;;;;;2.00;1.20;;;11.20;99.90;;;11.57;100.00;97688.41;5015514;28;20834;-78
2023/11/19 06:31:08;;;;;;;1.77;1.10;;;11.20;99.90;;;11.56;100.00;97692.81;5015064;28;20532;-77
2023/11/19 06:33:38;;;;;;;3.77;1.30;;;11.20;99.90;;;11.56;100.00;97686.78;5015812;28;20478;-77
2023/11/19 06:36:08;;;;;;;7.70;1.57;;;11.10;99.90;;;11.56;100.00;97694.63;5015569;28;20557;-77
2023/11/19 06:38:37;;;;;;;2.57;1.33;;;11.20;99.90;;;11.55;100.00;97699.09;5015455;28;21248;-77
2023/11/19 06:41:09;;;;;;;1.67;1.20;;;11.10;99.90;;;11.55;100.00;97708.75;5015696;28;20467;-77
2023/11/19 06:43:38;;;;;;;7.53;1.30;;;11.10;99.90;;;11.53;100.00;97701.09;5014822;28;20482;-76
2023/11/19 06:46:16;;;;;;;6.67;1.43;;;11.10;99.90;;;11.54;100.00;97696.66;5014442;28;20469;-76
2023/11/19 06:48:46;;;;;;;19.70;1.47;;;11.10;99.90;;;11.52;100.00;97691.63;5014614;28;21083;-77
2023/11/19 06:51:15;;;;;;;1.93;1.20;;;11.10;99.90;;;11.49;100.00;97697.25;5014297;28;20463;-77
2023/11/19 06:53:45;;;;;;;4.30;1.53;;;11.10;99.90;;;11.45;100.00;97696.03;5014369;28;20494;-78
2023/11/19 06:56:22;;;;;;;2.00;1.30;;;11.10;99.90;;;11.46;100.00;97708.13;5015612;28;20468;-77
2023/11/19 06:58:51;;;;;;;9.70;1.30;;;11.00;99.90;;;11.43;100.00;97711.16;5014113;28;20474;-77
2023/11/19 07:01:20;;;;;;;1.87;1.33;;;11.00;99.90;;;11.44;100.00;97723.25;5014620;28;20455;-78
2023/11/19 07:03:51;;;;;;;6.13;1.40;;;11.00;99.90;;;11.40;100.00;97722.03;5012544;28;20497;-77
2023/11/19 07:06:19;;;;;;;11.37;6.60;;;11.00;99.90;;;11.41;100.00;97733.31;5013565;28;20957;-77
2023/11/19 07:09:09;;;;;;;3.23;1.90;;;11.00;99.90;;;11.42;100.00;97735.72;5012979;28;20492;-77
2023/11/19 07:11:38;;;;;;;5.20;1.80;;;11.00;99.90;;;11.43;100.00;97737.34;5012911;28;20513;-77
2023/11/19 07:14:08;;;;;;;3.27;1.60;;;11.00;99.90;;;11.43;100.00;97734.72;5012950;28;20536;-78
2023/11/19 07:16:38;;;;;;;7.53;2.70;;;11.00;99.90;;;11.43;100.00;97729.47;5014344;28;20505;-77
2023/11/19 07:19:08;;;;;;;15.73;1.57;;;11.00;99.90;;;11.46;100.00;97734.31;5016542;28;20462;-76
2023/11/19 07:21:39;;;;;;;3.43;1.30;;;11.10;99.90;;;11.49;100.00;97739.16;5014398;28;20519;-77
2023/11/19 07:24:08;;;;;;;2.33;1.43;;;11.00;99.90;;;11.46;100.00;97729.09;5014219;28;20587;-77
2023/11/19 07:26:38;;;;;;;2.87;1.37;;;11.00;99.90;;;11.46;100.00;97723.84;5015001;28;20474;-77
2023/11/19 07:29:07;;;;;;;4.97;1.47;;;11.00;99.90;;;11.48;100.00;97731.50;5015404;28;20515;-79
2023/11/19 07:31:36;;;;;;;2.90;1.13;;;11.00;99.90;;;11.48;100.00;97727.09;5015927;28;20498;-76
2023/11/19 07:34:09;;;;;;;3.43;1.33;;;11.00;99.90;;;11.52;100.00;97727.50;5013139;28;21021;-76
2023/11/19 07:36:37;;;;;;;3.93;1.30;;;11.10;99.90;;;11.51;100.00;97726.69;5015325;28;20462;-76
2023/11/19 07:39:06;;;;;;;5.80;1.70;;;11.10;99.90;;;11.57;100.00;97722.44;5018660;28;20458;-77
2023/11/19 07:41:35;;;;;;;14.37;1.60;;;11.20;99.90;;;11.61;100.00;97732.31;5016883;28;20474;-77
2023/11/19 07:44:04;;;;;;;3.10;1.50;;;11.20;99.90;;;11.70;100.00;97732.13;5019414;28;20502;-77
2023/11/19 07:46:33;;;;;;;2.80;1.50;;;11.30;99.90;;;11.73;100.00;97737.00;5015662;28;20473;-77
2023/11/19 07:49:02;;;;;;;6.40;1.87;;;11.30;99.90;;;11.76;100.00;97732.16;5016963;28;20470;-77
2023/11/19 07:51:32;;;;;;;9.73;2.80;;;11.30;99.90;;;11.84;100.00;97736.38;5015455;28;20466;-76
2023/11/19 07:54:01;;;;;;;10.70;2.17;;;11.40;99.90;;;11.89;100.00;97741.81;5017551;28;20470;-77
2023/11/19 07:56:29;;;;;;;3.20;1.30;;;11.40;99.90;;;11.90;100.00;97728.53;5017859;28;20464;-77
2023/11/19 07:58:58;;;;;;;10.10;1.70;;;11.50;99.90;;;11.91;100.00;97739.78;5017304;28;21033;-77
2023/11/19 08:01:27;;;;;;;4.13;1.10;;;11.50;99.90;;;11.92;100.00;97746.66;5013575;28;20556;-78
2023/11/19 08:03:55;;;;;;;3.30;1.27;;;11.50;99.90;;;11.93;100.00;97750.91;5014249;28;20524;-77
2023/11/19 08:06:27;;;;;;;7.27;1.50;;;11.50;99.90;;;11.96;100.00;97769.63;5014475;28;20473;-77
2023/11/19 08:08:56;;;;;;;3.50;1.73;;;11.40;99.90;;;11.93;100.00;97769.22;5014599;28;20471;-77
2023/11/19 08:11:25;;;;;;;4.30;1.20;;;11.50;99.90;;;11.95;100.00;97775.06;5017772;28;20461;-77
2023/11/19 08:13:53;;;;;;;11.93;1.10;;;11.50;99.90;;;11.93;100.00;97780.53;5016704;28;20465;-77
2023/11/19 08:16:22;;;;;;;3.93;1.30;;;11.50;99.90;;;11.93;100.00;97772.66;5014710;28;21133;-77
2023/11/19 08:18:50;;;;;;;9.50;1.30;;;11.60;99.90;;;11.95;100.00;97769.81;5017217;28;20470;-77
2023/11/19 08:21:20;;;;;;;6.63;2.53;;;11.50;99.90;;;11.97;100.00;97763.41;5015016;28;20463;-75
2023/11/19 08:23:48;;;;;;;7.10;2.70;;;11.60;99.90;;;12.00;100.00;97768.22;5016912;28;20504;-77
2023/11/19 08:26:19;;;;;;;5.10;2.07;;;11.50;99.90;;;12.00;100.00;97763.00;5017903;28;20546;-77
2023/11/19 08:28:49;;;;;;;4.20;1.43;;;11.60;99.90;;;12.02;100.00;97754.91;5018217;28;20471;-77
2023/11/19 08:31:18;;;;;;;3.83;1.47;;;11.60;99.90;;;12.03;100.00;97746.84;5017174;28;20473;-77
2023/11/19 08:33:46;;;;;;;5.00;1.80;;;11.60;99.90;;;11.98;100.00;97738.78;5015821;28;20596;-77
2023/11/19 08:36:18;;;;;;;2.13;1.60;;;11.70;99.90;;;12.01;100.00;97758.53;5015983;28;20462;-77
2023/11/19 08:38:48;;;;;;;5.50;1.90;;;11.70;99.90;;;12.01;100.00;97764.56;5014366;28;20471;-77
2023/11/19 08:41:19;;;;;;;2.60;1.10;;;11.60;99.90;;;12.04;100.00;97773.88;5015220;28;21224;-77
2023/11/19 08:43:47;;;;;;;2.70;1.47;;;11.60;99.90;;;12.01;100.00;97774.25;5014841;28;20571;-77
2023/11/19 08:46:16;;;;;;;3.43;1.50;;;11.70;99.90;;;12.01;100.00;97779.50;5014545;28;20466;-79
2023/11/19 08:48:45;;;;;;;8.03;1.70;;;11.60;99.90;;;12.07;100.00;97797.88;5012526;28;20549;-77
2023/11/19 08:51:14;;;;;;;9.87;1.37;;;11.60;99.90;;;12.08;100.00;97796.81;5020000;28;20458;-76
2023/11/19 08:53:42;;;;;;;5.63;1.43;;;11.70;99.90;;;12.13;100.00;97791.00;5017195;28;20478;-76
2023/11/19 08:56:11;;;;;;;2.33;1.30;;;11.80;99.90;;;12.15;100.00;97804.69;5015092;28;21050;-77
2023/11/19 08:58:41;;;;;;;5.70;1.20;;;11.80;99.90;;;12.19;100.00;97807.72;5017015;28;20467;-76
2023/11/19 09:01:10;;;;;;;4.20;1.47;;;11.80;99.90;;;12.20;100.00;97815.38;5015247;28;20467;-76
2023/11/19 09:03:39;;;;;;;3.73;1.30;;;11.80;99.90;;;12.20;100.00;97804.91;5016371;28;20474;-76
2023/11/19 09:06:08;;;;;;;8.60;1.83;;;11.80;99.90;;;12.22;100.00;97792.38;5017871;28;20473;-77
2023/11/19 09:08:37;;;;;;;1.20;1.10;;;11.80;99.90;;;12.21;100.00;97803.91;5015971;28;21699;-77
2023/11/19 09:11:09;;;;;;;4.23;1.10;;;11.80;99.90;;;12.19;100.00;97792.78;5015764;28;20467;-77
2023/11/19 09:13:38;;;;;;;4.30;1.40;;;11.70;99.90;;;12.19;100.00;97800.66;5017173;28;20442;-76
2023/11/19 09:16:08;;;;;;;3.20;1.60;;;11.70;99.90;;;12.16;100.00;97801.06;5017637;28;20565;-77
2023/11/19 09:18:37;;;;;;;2.40;1.30;;;11.60;99.90;;;12.14;100.00;97797.84;5017999;28;20502;-79
2023/11/19 09:21:07;;;;;;;3.83;1.00;;;11.70;99.90;;;12.09;100.00;97797.63;5014036;28;20500;-78
2023/11/19 09:23:38;;;;;;;3.13;1.27;;;11.80;99.90;;;12.05;100.00;97799.84;5013510;28;20463;-77
2023/11/19 09:26:09;;;;;;;5.23;1.20;;;11.70;99.90;;;12.06;100.00;97803.28;5016272;28;20466;-79
2023/11/19 09:28:38;;;;;;;3.60;1.10;;;11.60;99.90;;;12.05;100.00;97812.16;5018530;28;20467;-78
2023/11/19 09:31:16;;;;;;;6.10;1.33;;;11.70;99.90;;;12.01;100.00;97813.56;5018130;28;20481;-78
2023/11/19 09:33:45;;;;;;;4.63;1.20;;;11.60;99.90;;;11.98;100.00;97817.41;5014861;28;20474;-79
2023/11/19 09:36:16;;;;;;;157.73;74.97;;;11.70;99.90;;;12.01;100.00;97821.41;5015532;28;20501;-79
2023/11/19 09:38:45;;;;;;;13.10;3.80;;;11.70;99.90;;;12.03;100.00;97830.72;5016078;28;20517;-78
2023/11/19 09:41:14;;;;;;;4.30;1.50;;;11.60;99.90;;;12.04;100.00;97815.81;5016294;28;21010;-79
2023/11/19 09:43:43;;;;;;;8.60;4.00;;;11.60;99.90;;;12.06;100.00;97803.28;5012742;28;20481;-79
2023/11/19 09:46:14;;;;;;;17.03;5.50;;;11.70;99.90;;;12.10;100.00;97810.56;5016779;28;20464;-78
2023/11/19 09:48:46;;;;;;;3.10;1.53;;;11.70;99.90;;;12.11;100.00;97811.38;5015007;28;20461;-79
2023/11/19 09:51:15;;;;;;;3.70;1.13;;;11.70;99.90;;;12.15;100.00;97817.78;5018407;28;20815;-76
2023/11/19 09:53:44;;;;;;;7.50;4.00;;;11.70;99.90;;;12.16;100.00;97818.59;5015523;28;20520;-80
2023/11/19 09:56:13;;;;;;;2.43;1.00;;;11.70;99.90;;;12.16;100.00;97803.69;5018887;28;20507;-80
2023/11/19 09:58:43;;;;;;;2.10;1.27;;;11.80;99.90;;;12.20;100.00;97815.38;5016907;28;20457;-80
2023/11/19 10:01:12;;;;;;;3.77;1.30;;;11.80;99.90;;;12.22;100.00;97802.09;5018684;28;20513;-80
2023/11/19 10:03:49;;;;;;;3.67;1.70;;;11.80;99.90;;;12.26;100.00;97804.06;5016794;28;20466;-80
2023/11/19 10:06:19;;;;;;;5.20;1.47;;;11.70;99.90;;;12.29;100.00;97798.44;5016821;28;20569;-80
2023/11/19 10:08:47;;;;;;;6.10;1.60;;;11.80;99.90;;;12.31;100.00;97796.41;5016320;28;20549;-80
2023/11/19 10:11:16;;;;;;;3.20;1.53;;;11.90;99.90;;;12.34;100.00;97785.53;5017113;28;20844;-80
2023/11/19 10:13:47;;;;;;;2.93;1.27;;;11.80;99.90;;;12.36;100.00;97793.97;5016647;28;20459;-80
2023/11/19 10:16:18;;;;;;;5.53;1.53;;;11.90;99.90;;;12.36;100.00;97788.72;5014132;28;20520;-80
2023/11/19 10:18:51;;;;;;;4.97;1.40;;;11.90;99.90;;;12.38;100.00;97786.72;5016557;28;20466;-80
2023/11/19 10:21:20;;;;;;;2.50;1.30;;;11.90;99.90;;;12.41;100.00;97786.31;5017448;28;20480;-79
2023/11/19 10:23:53;;;;;;;12.23;2.47;;;12.00;99.90;;;12.40;100.00;97795.19;5015374;28;20477;-80
2023/11/19 10:26:22;;;;;;;10.23;1.57;;;12.00;99.90;;;12.40;100.00;97787.31;5014748;28;20482;-80